Time;durP1;ratioP1;P1;durP2;ratioP2;P2;SDS_P1;SDS_P2;PMS_P1;PMS_P2;Temp;Humidity;BMP_temperature;BMP_pressure;BME280_temperature;BME280_humidity;BME280_pressure;Samples;Min_cycle;Max_cycle;Signal;HPM_P1;HPM_P2
2024/04/02 00:00:38;;;;;;;31.10;9.40;;;;;;;26.82;28.42;99610.59;105955;1266;69956;-84
2024/04/02 00:03:05;;;;;;;30.10;9.80;;;;;;;26.82;28.45;99603.60;105927;1269;70035;-84
2024/04/02 00:05:31;;;;;;;30.90;10.40;;;;;;;26.81;28.52;99603.67;105860;1268;70526;-84
2024/04/02 00:07:56;;;;;;;37.40;10.20;;;;;;;26.80;28.62;99603.70;105890;1269;70324;-84
2024/04/02 00:10:22;;;;;;;25.10;8.70;;;;;;;26.80;28.61;99600.41;106068;1269;70094;-84
2024/04/02 00:12:47;;;;;;;28.70;10.00;;;;;;;26.79;28.61;99601.36;105909;1267;69936;-84
2024/04/02 00:15:13;;;;;;;36.70;9.70;;;;;;;26.79;28.69;99600.17;105795;1269;70060;-84
2024/04/02 00:17:47;;;;;;;37.80;9.90;;;;;;;26.79;28.69;99601.88;105813;1268;69954;-89
2024/04/02 00:20:13;;;;;;;30.20;10.00;;;;;;;26.78;28.66;99604.49;105864;1265;70548;-84
2024/04/02 00:22:40;;;;;;;39.30;9.90;;;;;;;26.77;28.69;99600.90;105907;1272;71142;-84
2024/04/02 00:25:06;;;;;;;30.80;10.00;;;;;;;26.77;28.82;99599.99;105885;1267;69942;-84
2024/04/02 00:27:31;;;;;;;39.50;10.10;;;;;;;26.76;28.80;99594.84;105826;1267;69922;-84
2024/04/02 00:29:57;;;;;;;31.70;9.90;;;;;;;26.76;28.85;99589.89;105882;1268;70007;-85
2024/04/02 00:32:22;;;;;;;34.80;10.00;;;;;;;26.76;28.83;99593.79;105950;1268;70036;-84
2024/04/02 00:34:48;;;;;;;29.80;10.10;;;;;;;26.76;28.89;99595.79;105870;1269;70027;-84
2024/04/02 00:37:14;;;;;;;32.20;10.60;;;;;;;26.75;28.82;99598.83;105897;1276;69956;-84
2024/04/02 00:39:39;;;;;;;28.80;10.00;;;;;;;26.74;28.83;99595.65;105720;1278;70084;-84
2024/04/02 00:42:05;;;;;;;34.80;10.70;;;;;;;26.74;28.95;99598.02;105786;1277;70299;-84
2024/04/02 00:44:33;;;;;;;36.70;11.00;;;;;;;26.74;28.98;99603.29;105793;1263;69958;-84
2024/04/02 00:46:58;;;;;;;30.20;9.60;;;;;;;26.73;28.90;99605.64;105795;1269;69932;-84
2024/04/02 00:49:24;;;;;;;36.90;11.40;;;;;;;26.73;28.79;99606.63;105789;1264;70070;-84
2024/04/02 00:51:49;;;;;;;32.10;11.50;;;;;;;26.73;28.91;99604.89;105743;1275;70033;-84
2024/04/02 00:54:16;;;;;;;28.90;9.60;;;;;;;26.72;28.88;99597.74;105795;1269;69907;-84
2024/04/02 00:56:41;;;;;;;31.90;10.00;;;;;;;26.71;28.92;99595.83;105868;1264;70488;-84
2024/04/02 00:59:07;;;;;;;27.60;9.80;;;;;;;26.71;28.95;99597.37;105710;1274;69942;-84
2024/04/02 01:01:32;;;;;;;32.00;10.30;;;;;;;26.70;28.88;99594.35;105894;1269;70384;-84
2024/04/02 01:03:59;;;;;;;40.10;10.70;;;;;;;26.70;28.91;99598.86;105770;1267;70028;-84
2024/04/02 01:06:24;;;;;;;29.10;10.70;;;;;;;26.69;28.84;99596.11;105878;1268;70050;-83
2024/04/02 01:08:50;;;;;;;31.40;10.40;;;;;;;26.69;28.95;99594.09;105844;1264;71154;-84
2024/04/02 01:11:15;;;;;;;27.10;9.60;;;;;;;26.69;28.86;99590.08;105911;1264;70098;-84
2024/04/02 01:13:41;;;;;;;29.90;10.50;;;;;;;26.68;28.89;99589.06;105877;1264;70343;-84
2024/04/02 01:16:07;;;;;;;35.50;11.60;;;;;;;26.68;28.68;99592.31;105870;1264;70001;-84
2024/04/02 01:18:32;;;;;;;27.40;10.50;;;;;;;26.67;29.03;99595.23;105792;1264;70062;-84
2024/04/02 01:20:58;;;;;;;28.90;10.60;;;;;;;26.68;29.17;99591.83;105860;1264;69930;-84
2024/04/02 01:23:28;;;;;;;32.70;10.80;;;;;;;26.67;28.99;99591.08;105729;1270;74291;-89
2024/04/02 01:25:54;;;;;;;;;;;;;;;26.66;29.18;99589.60;105675;1264;69953;-84
2024/04/02 01:28:19;;;;;;;34.60;10.60;;;;;;;26.64;28.99;99585.52;105828;1269;70062;-84
2024/04/02 01:30:45;;;;;;;33.60;10.50;;;;;;;26.64;29.03;99585.67;105854;1264;70014;-84
2024/04/02 01:33:10;;;;;;;34.50;10.40;;;;;;;26.64;29.11;99579.13;105887;1264;70825;-84
2024/04/02 01:35:36;;;;;;;32.10;10.50;;;;;;;26.64;29.02;99576.29;105820;1267;69892;-84
2024/04/02 01:38:01;;;;;;;29.20;10.90;;;;;;;26.63;29.05;99572.27;105720;1264;70019;-84
2024/04/02 01:40:27;;;;;;;33.90;11.00;;;;;;;26.63;29.10;99571.67;105755;1264;70059;-84
2024/04/02 01:42:52;;;;;;;30.20;9.60;;;;;;;26.63;29.13;99574.09;105903;1267;69990;-84
2024/04/02 01:45:18;;;;;;;30.90;10.30;;;;;;;26.62;29.12;99572.63;105906;1264;70030;-84
2024/04/02 01:47:44;;;;;;;32.80;10.60;;;;;;;26.63;29.16;99573.64;105842;1269;70019;-84
2024/04/02 01:50:09;;;;;;;37.90;10.70;;;;;;;26.62;29.27;99571.60;105663;1264;70006;-84
2024/04/02 01:52:34;;;;;;;32.00;10.20;;;;;;;26.62;29.19;99572.02;105797;1267;70112;-84
2024/04/02 01:55:00;;;;;;;30.70;10.30;;;;;;;26.61;29.30;99568.69;105831;1268;70370;-84
2024/04/02 01:57:25;;;;;;;29.50;9.90;;;;;;;26.61;29.17;99562.68;105786;1264;70015;-84
2024/04/02 01:59:54;;;;;;;32.20;10.60;;;;;;;26.61;29.13;99560.98;105803;1265;69937;-84
2024/04/02 02:02:23;;;;;;;29.60;9.20;;;;;;;26.60;29.30;99556.52;105775;1267;69923;-89
2024/04/02 02:04:49;;;;;;;32.60;9.90;;;;;;;26.60;29.14;99554.77;105762;1267;75461;-84
2024/04/02 02:07:14;;;;;;;32.80;9.90;;;;;;;26.60;29.21;99552.26;105790;1264;70024;-84
2024/04/02 02:09:40;;;;;;;34.10;10.30;;;;;;;26.60;29.22;99544.30;105789;1276;69991;-84
2024/04/02 02:12:06;;;;;;;30.80;10.20;;;;;;;26.59;29.23;99537.12;105809;1264;70017;-84
2024/04/02 02:14:32;;;;;;;30.60;10.20;;;;;;;26.58;29.07;99537.08;105925;1267;70010;-84
2024/04/02 02:16:58;;;;;;;31.60;10.10;;;;;;;26.58;29.35;99540.19;105792;1264;70006;-84
2024/04/02 02:19:23;;;;;;;31.50;10.10;;;;;;;26.57;29.22;99539.69;105832;1263;70064;-84
2024/04/02 02:21:49;;;;;;;32.30;10.40;;;;;;;26.58;29.27;99541.73;105852;1264;70002;-84
2024/04/02 02:24:14;;;;;;;28.00;10.20;;;;;;;26.57;29.15;99539.51;105849;1264;70118;-84
2024/04/02 02:26:40;;;;;;;32.70;10.60;;;;;;;26.57;29.07;99540.23;105841;1267;70036;-84
2024/04/02 02:31:48;;;;;;;39.00;10.80;;;;;;;26.55;29.32;99535.70;105880;1266;69993;-84
2024/04/02 02:34:14;;;;;;;28.40;10.40;;;;;;;26.55;29.19;99535.01;105775;1271;70004;-84
2024/04/02 02:36:39;;;;;;;29.10;9.80;;;;;;;26.55;29.25;99532.48;105811;1271;69941;-84
2024/04/02 02:39:05;;;;;;;31.20;9.70;;;;;;;26.55;29.25;99530.59;105752;1265;69948;-84
2024/04/02 02:41:30;;;;;;;28.40;10.00;;;;;;;26.55;29.32;99525.02;105729;1270;70007;-84
2024/04/02 02:43:57;;;;;;;33.30;10.60;;;;;;;26.54;29.39;99524.42;105650;1270;69919;-84
2024/04/02 02:46:23;;;;;;;34.60;11.30;;;;;;;26.54;29.31;99518.18;105782;1270;70002;-84
2024/04/02 02:48:48;;;;;;;36.30;11.30;;;;;;;26.54;29.32;99517.42;105782;1266;70485;-83
2024/04/02 02:51:14;;;;;;;41.20;11.10;;;;;;;26.54;29.42;99511.75;105718;1271;70062;-83
2024/04/02 02:53:39;;;;;;;39.00;10.90;;;;;;;26.52;29.38;99510.77;105821;1269;71095;-84
2024/04/02 02:56:14;;;;;;;36.10;10.00;;;;;;;26.52;29.44;99507.60;105797;1265;70025;-90
2024/04/02 02:58:41;;;;;;;36.00;10.30;;;;;;;26.51;29.52;99506.69;105775;1270;69909;-84
2024/04/02 03:01:07;;;;;;;36.50;10.00;;;;;;;26.50;29.44;99502.38;105889;1266;70118;-84
2024/04/02 03:03:32;;;;;;;21.00;6.90;;;;;;;26.50;29.28;99491.10;105855;1266;69940;-85
2024/04/02 03:05:58;;;;;;;18.30;6.40;;;;;;;26.50;29.23;99477.92;106000;1270;70050;-84
2024/04/02 03:08:24;;;;;;;20.80;6.50;;;;;;;26.50;29.31;99453.40;105964;1269;70455;-85
2024/04/02 03:11:10;;;;;;;18.00;6.10;;;;;;;26.50;29.52;99436.14;105791;1266;70136;-85
2024/04/02 03:13:36;;;;;;;19.90;6.40;;;;;;;26.50;29.45;99432.96;105861;1269;69937;-85
2024/04/02 03:16:02;;;;;;;22.80;7.10;;;;;;;26.51;29.24;99444.09;105833;1266;69996;-85
2024/04/02 03:18:28;;;;;;;22.40;7.00;;;;;;;26.51;29.24;99454.08;105852;1266;70552;-86
2024/04/02 03:20:54;;;;;;;34.40;7.80;;;;;;;26.51;29.33;99447.56;106591;1268;70456;-88
2024/04/02 03:23:22;;;;;;;28.90;6.80;;;;;;;26.52;29.34;99436.14;107033;1264;70549;-87
2024/04/02 03:28:39;;;;;;;35.50;8.00;;;;;;;26.52;29.05;99437.81;106734;1267;70036;-87
2024/04/02 03:31:04;;;;;;;53.70;9.30;;;;;;;26.51;29.06;99430.77;107520;1265;75521;-88
2024/04/02 03:33:30;;;;;;;57.30;10.00;;;;;;;26.44;28.37;99434.19;106531;1265;69999;-88
2024/04/02 03:36:03;;;;;;;51.80;9.20;;;;;;;26.30;28.27;99442.54;106538;1265;70014;-88
2024/04/02 03:38:29;;;;;;;53.80;9.30;;;;;;;26.12;28.24;99439.17;106441;1265;69865;-88
2024/04/02 03:41:06;;;;;;;41.90;8.80;;;;;;;25.99;28.41;99437.42;106281;1265;70055;-93
2024/04/02 03:43:32;;;;;;;58.10;9.70;;;;;;;25.86;28.43;99440.52;106209;1273;74421;-88
2024/04/02 03:45:57;;;;;;;44.90;8.90;;;;;;;25.73;28.37;99445.33;106636;1272;70039;-88
2024/04/02 03:48:23;;;;;;;46.30;8.70;;;;;;;25.62;28.27;99450.65;106406;1265;70032;-86
2024/04/02 03:50:49;;;;;;;41.00;8.80;;;;;;;25.51;28.35;99444.02;106105;1265;70041;-87
2024/04/02 03:53:14;;;;;;;61.70;9.50;;;;;;;25.43;28.06;99443.52;106401;1265;70021;-87
2024/04/02 03:55:40;;;;;;;49.40;9.30;;;;;;;25.37;28.12;99440.23;106162;1265;70023;-87
2024/04/02 03:58:05;;;;;;;41.70;8.90;;;;;;;25.30;28.15;99443.45;106324;1265;70045;-87
2024/04/02 04:00:31;;;;;;;48.70;8.70;;;;;;;25.24;28.14;99445.60;106317;1270;70035;-87
2024/04/02 04:02:56;;;;;;;53.40;10.40;;;;;;;25.21;28.06;99438.13;106516;1265;70111;-85
2024/04/02 04:05:22;;;;;;;51.80;9.20;;;;;;;25.23;28.15;99436.89;106237;1266;70026;-87
2024/04/02 04:07:56;;;;;;;50.90;9.40;;;;;;;25.27;28.27;99436.84;106214;1268;69948;-91
2024/04/02 04:10:22;;;;;;;53.90;10.90;;;;;;;25.32;28.14;99431.21;106562;1271;70015;-86
2024/04/02 04:12:47;;;;;;;42.70;9.40;;;;;;;25.37;28.02;99427.77;106641;1265;70120;-86
2024/04/02 04:15:13;;;;;;;52.30;9.60;;;;;;;25.42;28.13;99422.85;106692;1265;70103;-85
2024/04/02 04:17:38;;;;;;;44.20;10.50;;;;;;;25.46;27.93;99424.54;106362;1268;70126;-84
2024/04/02 04:20:07;;;;;;;51.10;9.90;;;;;;;25.49;27.91;99422.73;106583;1267;70018;-86
2024/04/02 04:22:32;;;;;;;46.10;9.60;;;;;;;25.52;28.08;99420.86;106314;1267;69941;-85
2024/04/02 04:25:00;;;;;;;47.50;9.70;;;;;;;25.56;27.99;99418.46;106621;1273;70011;-85
2024/04/02 04:27:31;;;;;;;53.00;9.60;;;;;;;25.58;28.02;99416.14;106950;1268;69898;-84
2024/04/02 04:29:56;;;;;;;60.50;10.00;;;;;;;25.61;28.27;99419.52;107171;1268;69856;-85
2024/04/02 04:32:22;;;;;;;68.00;9.50;;;;;;;25.63;28.22;99420.02;107436;1267;70026;-85
2024/04/02 04:34:52;;;;;;;64.50;10.10;;;;;;;25.65;28.28;99414.38;107308;1267;68471;-90
2024/04/02 04:37:17;;;;;;;70.90;11.40;;;;;;;25.67;28.15;99411.68;106798;1267;73869;-86
2024/04/02 04:39:43;;;;;;;55.70;9.40;;;;;;;25.69;28.13;99408.59;106864;1266;70063;-85
2024/04/02 04:42:08;;;;;;;66.70;10.80;;;;;;;25.70;28.14;99414.17;107251;1269;72448;-86
2024/04/02 04:44:34;;;;;;;70.40;10.00;;;;;;;25.72;28.35;99414.05;108124;1268;69870;-86
2024/04/02 04:47:00;;;;;;;60.20;10.00;;;;;;;25.73;28.21;99412.92;107609;1271;69950;-87
2024/04/02 04:49:26;;;;;;;63.90;10.30;;;;;;;25.75;28.18;99405.70;107849;1268;69771;-89
2024/04/02 04:51:51;;;;;;;66.40;10.20;;;;;;;25.76;28.12;99408.52;107335;1269;69974;-86
2024/04/02 04:54:17;;;;;;;58.20;10.70;;;;;;;25.78;28.16;99409.69;107328;1267;70014;-86
2024/04/02 04:56:43;;;;;;;60.90;10.10;;;;;;;25.80;28.10;99406.58;107482;1267;69824;-86
2024/04/02 04:59:08;;;;;;;56.20;10.40;;;;;;;25.80;28.08;99407.23;107141;1269;69807;-84
2024/04/02 05:04:14;;;;;;;58.50;10.20;;;;;;;25.82;27.92;99413.30;107338;1263;69948;-86
2024/04/02 05:06:42;;;;;;;62.70;11.20;;;;;;;25.84;28.00;99415.83;107142;1265;69963;-88
2024/04/02 05:09:11;;;;;;;58.80;9.60;;;;;;;25.85;28.01;99418.82;107343;1265;74507;-85
2024/04/02 05:11:40;;;;;;;47.10;10.40;;;;;;;25.86;28.03;99420.73;107118;1265;67977;-87
2024/04/02 05:14:06;;;;;;;48.50;10.50;;;;;;;25.87;27.74;99424.48;107664;1264;68282;-86
2024/04/02 05:22:00;;;;;;;55.00;9.90;;;;;;;25.86;27.57;99423.86;107696;1264;71697;-88
2024/04/02 05:24:26;;;;;;;49.10;9.50;;;;;;;25.86;27.59;99422.48;107740;1264;67665;-86
2024/04/02 05:26:52;;;;;;;64.20;11.40;;;;;;;25.87;27.64;99423.34;107966;1264;69806;-88
2024/04/02 05:29:18;;;;;;;49.20;9.80;;;;;;;25.86;27.40;99426.21;108354;1265;69912;-87
2024/04/02 05:31:44;;;;;;;53.40;9.40;;;;;;;25.87;27.32;99423.23;108346;1264;68323;-88
2024/04/02 05:34:10;;;;;;;55.00;10.50;;;;;;;25.88;27.41;99423.55;108223;1264;69262;-87
2024/04/02 05:36:35;;;;;;;59.90;10.50;;;;;;;25.89;27.45;99427.94;107788;1264;70021;-86
2024/04/02 05:39:02;;;;;;;60.50;10.70;;;;;;;25.91;27.56;99441.19;108120;1264;69950;-85
2024/04/02 05:41:27;;;;;;;50.10;11.50;;;;;;;25.92;27.46;99441.01;107781;1265;69942;-86
2024/04/02 05:43:53;;;;;;;53.80;10.00;;;;;;;25.94;27.29;99441.30;107594;1266;69908;-86
2024/04/02 05:46:18;;;;;;;43.90;10.40;;;;;;;25.96;27.45;99439.11;107665;1265;70012;-85
2024/04/02 05:48:47;;;;;;;43.30;9.60;;;;;;;25.99;27.37;99432.34;107926;1270;70299;-85
2024/04/02 05:51:13;;;;;;;58.40;11.70;;;;;;;26.00;27.17;99428.89;107989;1265;69926;-85
2024/04/02 05:53:48;;;;;;;49.30;9.90;;;;;;;26.02;27.35;99430.45;108143;1264;68284;-87
2024/04/02 05:56:14;;;;;;;48.40;10.90;;;;;;;26.02;26.90;99426.15;108237;1264;69784;-87
2024/04/02 05:58:41;;;;;;;52.40;10.50;;;;;;;26.05;26.90;99432.34;108020;1265;67658;-88
2024/04/02 06:01:19;;;;;;;46.70;10.00;;;;;;;26.06;26.76;99438.80;107959;1264;69886;-87
2024/04/02 06:04:12;;;;;;;53.10;10.10;;;;;;;26.07;26.74;99443.67;108056;1264;68179;-87
2024/04/02 06:06:41;;;;;;;53.40;9.40;;;;;;;26.01;26.45;99440.70;108329;1264;74468;-89
2024/04/02 06:09:14;;;;;;;65.30;12.80;;;;;;;25.83;26.13;99443.14;108455;1263;69950;-86
2024/04/02 06:11:43;;;;;;;66.40;12.60;;;;;;;25.68;26.18;99444.90;108436;1263;69958;-90
2024/04/02 06:17:15;;;;;;;53.40;10.10;;;;;;;25.58;26.00;99486.12;108486;1264;67952;-88
2024/04/02 06:19:48;;;;;;;50.30;9.70;;;;;;;25.58;25.98;99506.66;108531;1262;74509;-87
2024/04/02 06:24:57;;;;;;;43.00;9.10;;;;;;;25.65;26.08;99510.44;108215;1263;67865;-87
2024/04/02 06:27:50;;;;;;;;;;;;;;;;;;;;;
2024/04/02 06:30:22;;;;;;;42.50;9.90;;;;;;;25.74;26.06;99519.80;108393;1264;67313;-89
2024/04/02 06:39:13;;;;;;;47.30;9.10;;;;;;;25.85;26.14;99520.80;109025;1261;67880;-89
2024/04/02 06:41:43;;;;;;;59.00;9.70;;;;;;;25.89;26.31;99536.73;108119;1267;69998;-90
2024/04/02 06:44:09;;;;;;;42.20;9.10;;;;;;;25.92;26.25;99545.31;108336;1262;67926;-89
2024/04/02 06:46:35;;;;;;;42.70;8.50;;;;;;;25.95;26.12;99541.91;108369;1262;70061;-89
2024/04/02 06:52:05;;;;;;;45.90;9.30;;;;;;;26.01;26.15;99541.70;108185;1262;67572;-92
2024/04/02 06:54:55;;;;;;;45.90;10.10;;;;;;;26.02;26.08;99531.98;108317;1262;70037;-91
2024/04/02 06:57:24;;;;;;;52.50;11.70;;;;;;;26.04;26.25;99531.61;108105;1262;69909;-89
2024/04/02 06:59:49;;;;;;;42.80;10.90;;;;;;;26.05;26.32;99538.06;108255;1262;74300;-88
2024/04/02 07:02:15;;;;;;;48.30;11.70;;;;;;;26.05;26.25;99538.94;108010;1262;70011;-88
2024/04/02 07:04:43;;;;;;;154.60;15.70;;;;;;;26.06;26.26;99542.30;108045;1262;70120;-88
2024/04/02 07:09:54;;;;;;;97.60;13.60;;;;;;;26.07;26.30;99546.86;108249;1263;68548;-87
2024/04/02 07:12:20;;;;;;;93.30;13.70;;;;;;;26.05;26.26;99553.23;108531;1264;69994;-88
2024/04/02 07:17:33;;;;;;;76.40;11.00;;;;;;;26.05;26.25;99567.29;108347;1267;68399;-88
2024/04/02 07:20:02;;;;;;;84.20;12.50;;;;;;;26.07;26.38;99572.66;107677;1266;551916;-89
2024/04/02 07:22:28;;;;;;;74.20;11.70;;;;;;;26.08;26.33;99580.90;108115;1267;68501;-87
2024/04/02 07:24:54;;;;;;;71.70;12.40;;;;;;;26.10;26.33;99571.26;108223;1267;68922;-85
2024/04/02 07:27:19;;;;;;;56.60;10.20;;;;;;;26.11;26.44;99571.11;108244;1267;68311;-85
2024/04/02 07:29:47;;;;;;;70.60;10.50;;;;;;;26.13;26.29;99565.48;108133;1267;68037;-84
2024/04/02 07:32:13;;;;;;;67.30;10.80;;;;;;;26.13;26.35;99572.14;107843;1267;70428;-84
2024/04/02 07:34:40;;;;;;;59.40;10.40;;;;;;;26.14;26.25;99577.16;108189;1267;70069;-85
2024/04/02 07:37:14;;;;;;;58.40;10.40;;;;;;;26.15;26.18;99578.40;107983;1267;69955;-91
2024/04/02 07:39:40;;;;;;;53.60;10.00;;;;;;;26.17;26.39;99582.38;108122;1269;68650;-86
2024/04/02 07:42:06;;;;;;;54.60;9.80;;;;;;;26.19;26.32;99579.92;108040;1270;68361;-85
2024/04/02 07:44:31;;;;;;;56.30;10.00;;;;;;;26.21;26.47;99586.65;108225;1266;68410;-85
2024/04/02 07:46:57;;;;;;;67.90;9.90;;;;;;;26.24;26.34;99589.39;108289;1266;67985;-85
2024/04/02 07:49:27;;;;;;;53.20;9.00;;;;;;;26.25;26.38;99597.17;108327;1267;68440;-90
2024/04/02 07:58:12;;;;;;;50.10;8.70;;;;;;;26.31;26.47;99613.54;108419;1265;68181;-93
2024/04/02 08:00:40;;;;;;;58.60;8.90;;;;;;;26.32;26.55;99607.29;108370;1265;74011;-87
2024/04/02 08:03:06;;;;;;;55.20;8.90;;;;;;;26.34;26.46;99613.27;108521;1268;67687;-86
2024/04/02 08:05:31;;;;;;;64.10;9.40;;;;;;;26.36;26.53;99604.48;108416;1271;67621;-88
2024/04/02 08:07:57;;;;;;;53.10;9.10;;;;;;;26.37;26.51;99591.92;108323;1265;68056;-86
2024/04/02 08:10:23;;;;;;;136.90;10.80;;;;;;;26.36;26.65;99600.81;108353;1269;67392;-86
2024/04/02 08:12:49;;;;;;;123.40;10.90;;;;;;;26.31;26.41;99597.80;108254;1265;68371;-86
2024/04/02 08:15:23;;;;;;;111.40;9.60;;;;;;;26.28;26.35;99600.04;108423;1265;69953;-87
2024/04/02 08:17:49;;;;;;;105.90;10.40;;;;;;;26.26;26.57;99598.20;108356;1266;69968;-88
2024/04/02 08:20:16;;;;;;;99.90;9.30;;;;;;;26.25;26.56;99597.59;108338;1271;67683;-86
2024/04/02 08:22:42;;;;;;;80.50;8.30;;;;;;;26.25;26.60;99592.48;108383;1265;68615;-87
2024/04/02 08:28:13;;;;;;;60.40;8.00;;;;;;;26.25;26.46;99597.14;108472;1265;69974;-88
2024/04/02 08:30:38;;;;;;;60.60;8.20;;;;;;;26.25;26.29;99590.25;108096;1265;69988;-86
2024/04/02 08:33:07;;;;;;;55.80;8.60;;;;;;;26.27;26.40;99590.78;108309;1265;69959;-91
2024/04/02 08:38:47;;;;;;;46.00;7.20;;;;;;;26.31;26.24;99592.29;108573;1267;74930;-89
2024/04/02 08:44:23;;;;;;;47.30;7.20;;;;;;;26.29;26.27;99592.52;108433;1263;68819;-87
2024/04/02 08:46:49;;;;;;;39.60;7.20;;;;;;;26.28;26.30;99589.02;108313;1264;69776;-89
2024/04/02 08:49:14;;;;;;;35.70;6.80;;;;;;;26.27;26.38;99586.09;108280;1262;68446;-86
2024/04/02 08:51:40;;;;;;;34.20;6.60;;;;;;;26.24;26.30;99588.60;108075;1262;70023;-88
2024/04/02 08:54:05;;;;;;;44.20;7.40;;;;;;;26.23;26.38;99589.17;107998;1262;70226;-87
2024/04/02 08:56:31;;;;;;;33.50;5.90;;;;;;;26.23;26.43;99590.42;108199;1262;69985;-85
2024/04/02 08:58:57;;;;;;;31.50;5.10;;;;;;;26.22;26.37;99596.21;107895;1266;67855;-85
2024/04/02 09:01:23;;;;;;;80.00;6.00;;;;;;;26.23;26.62;99607.05;107999;1262;70312;-87
2024/04/02 09:03:54;;;;;;;48.30;5.20;;;;;;;26.20;26.47;99600.78;108316;1262;70003;-92
2024/04/02 09:06:20;;;;;;;44.90;5.10;;;;;;;26.15;26.54;99605.94;108028;1269;69962;-87
2024/04/02 09:08:46;;;;;;;37.60;4.50;;;;;;;26.14;26.47;99613.16;108128;1269;69997;-85
2024/04/02 09:11:12;;;;;;;43.90;4.40;;;;;;;26.14;26.43;99615.61;108015;1264;67908;-86
2024/04/02 09:13:39;;;;;;;39.80;5.20;;;;;;;26.15;26.58;99613.88;108090;1264;69988;-87
2024/04/02 09:16:05;;;;;;;41.20;4.00;;;;;;;26.18;26.46;99618.74;107906;1262;69935;-85
2024/04/02 09:18:35;;;;;;;32.50;5.10;;;;;;;26.19;26.60;99625.55;108696;1264;68772;-87
2024/04/02 09:27:06;;;;;;;66.00;7.20;;;;;;;26.18;26.44;99646.41;109013;1263;72118;-86
2024/04/02 09:29:31;;;;;;;63.20;6.30;;;;;;;26.18;26.34;99647.03;109013;1264;67914;-88
2024/04/02 09:31:58;;;;;;;56.70;5.50;;;;;;;26.20;26.31;99652.89;108657;1264;69956;-87
2024/04/02 09:34:24;;;;;;;59.30;7.10;;;;;;;26.22;26.42;99645.55;108536;1262;67480;-86
2024/04/02 09:36:56;;;;;;;57.80;5.70;;;;;;;26.24;26.40;99640.90;108506;1263;69895;-87
2024/04/02 09:39:22;;;;;;;47.00;5.20;;;;;;;26.25;26.30;99645.65;108541;1263;74299;-89
2024/04/02 09:41:47;;;;;;;50.70;6.10;;;;;;;26.26;26.39;99644.17;107998;1264;69936;-87
2024/04/02 09:44:18;;;;;;;56.90;6.80;;;;;;;26.26;26.38;99644.02;108773;1269;69171;-88
2024/04/02 09:49:37;;;;;;;41.10;5.50;;;;;;;26.25;26.56;99644.10;107962;1268;69980;-88
2024/04/02 10:07:27;;;;;;;30.20;4.10;;;;;;;26.24;26.33;99659.64;108930;1263;84175;-90
2024/04/02 10:13:34;;;;;;;32.30;4.40;;;;;;;26.29;26.24;99649.23;108636;1264;559389;-90
2024/04/02 10:50:06;;;;;;;33.40;10.00;;;;;;;26.35;24.96;99677.48;109117;1262;67762;-88
2024/04/02 10:52:38;;;;;;;31.30;9.50;;;;;;;26.36;24.96;99685.91;109109;1262;74048;-89
2024/04/02 11:06:58;;;;;;;25.30;6.40;;;;;;;26.38;24.61;99675.16;108300;1263;73038;-93
2024/04/02 11:15:32;;;;;;;27.20;5.80;;;;;;;26.38;24.18;99691.05;109062;1262;67721;-89
2024/04/02 11:17:58;;;;;;;15.80;4.20;;;;;;;26.38;24.23;99678.48;107751;1264;68072;-88
2024/04/02 11:37:38;;;;;;;20.00;3.20;;;;;;;26.33;23.22;99670.91;108599;1262;71545;-93
2024/04/02 11:40:08;;;;;;;17.90;3.20;;;;;;;26.34;23.13;99674.77;108603;1262;69705;-89
2024/04/02 12:00:45;;;;;;;21.10;2.30;;;;;;;26.31;22.40;99643.53;108174;1266;69871;-87
2024/04/02 12:29:45;;;;;;;10.60;2.20;;;;;;;26.31;21.39;99676.51;108489;1263;68166;-88
2024/04/02 12:35:28;;;;;;;9.90;2.10;;;;;;;26.30;21.22;99678.44;107808;1263;554676;-89
2024/04/02 13:06:27;;;;;;;10.00;1.80;;;;;;;26.33;21.09;99697.23;108057;1263;69024;-88
2024/04/02 13:17:59;;;;;;;9.40;1.90;;;;;;;26.31;21.19;99691.59;108155;1264;73218;-91
2024/04/02 13:20:27;;;;;;;9.80;1.80;;;;;;;26.32;21.18;99686.00;107536;1268;69956;-90
2024/04/02 13:22:53;;;;;;;10.00;1.90;;;;;;;26.32;21.14;99689.94;107987;1264;69624;-87
2024/04/02 13:25:25;;;;;;;15.70;2.70;;;;;;;26.32;21.26;99687.36;107918;1265;69940;-88
2024/04/02 13:27:53;;;;;;;13.80;1.90;;;;;;;26.32;21.45;99679.88;108533;1263;67314;-88
2024/04/02 13:30:25;;;;;;;12.30;2.20;;;;;;;26.32;21.40;99682.67;108021;1266;69849;-87
2024/04/02 13:32:55;;;;;;;12.30;2.10;;;;;;;26.31;21.27;99684.90;108477;1263;69688;-90
2024/04/02 13:35:20;;;;;;;11.20;2.70;;;;;;;26.31;21.46;99689.29;108452;1263;70002;-86
2024/04/02 13:37:47;;;;;;;19.60;2.50;;;;;;;26.31;21.32;99686.57;107920;1263;69998;-86
2024/04/02 13:40:17;;;;;;;11.70;2.30;;;;;;;26.31;21.33;99682.14;108124;1263;67762;-87
2024/04/02 13:42:43;;;;;;;13.80;2.50;;;;;;;26.30;21.22;99682.97;108050;1262;74364;-86
2024/04/02 13:45:10;;;;;;;18.60;2.70;;;;;;;26.30;21.50;99684.83;108176;1263;69981;-87
2024/04/02 13:47:37;;;;;;;13.20;2.60;;;;;;;26.30;21.55;99688.48;108420;1263;68090;-85
2024/04/02 13:50:20;;;;;;;15.00;2.30;;;;;;;26.30;21.60;99696.80;108313;1262;70004;-85
2024/04/02 13:52:46;;;;;;;12.90;2.30;;;;;;;26.30;21.45;99696.17;107945;1262;67973;-86
2024/04/02 13:55:11;;;;;;;8.10;2.20;;;;;;;26.30;21.63;99704.27;107746;1264;69495;-86
2024/04/02 13:57:37;;;;;;;8.90;2.30;;;;;;;26.31;21.26;99712.61;107629;1263;70308;-86
2024/04/02 14:00:05;;;;;;;11.80;2.30;;;;;;;26.30;21.44;99717.42;107540;1262;70470;-85
2024/04/02 14:02:31;;;;;;;14.60;2.30;;;;;;;26.30;21.38;99707.90;107838;1262;69785;-85
2024/04/02 14:04:56;;;;;;;10.40;2.20;;;;;;;26.30;21.51;99707.48;107966;1265;70020;-85
2024/04/02 14:07:23;;;;;;;11.30;2.30;;;;;;;26.29;21.32;99705.66;107790;1263;69944;-87
2024/04/02 14:09:49;;;;;;;17.30;2.30;;;;;;;26.28;21.32;99702.17;107650;1263;69949;-84
2024/04/02 14:12:15;;;;;;;6.90;1.90;;;;;;;26.27;21.36;99711.22;107452;1262;69946;-83
2024/04/02 14:14:40;;;;;;;16.10;2.60;;;;;;;26.25;21.34;99717.00;107656;1262;69876;-85
2024/04/02 14:17:06;;;;;;;8.50;2.10;;;;;;;26.25;21.21;99715.69;107437;1263;68238;-85
2024/04/02 14:19:32;;;;;;;20.10;2.50;;;;;;;26.24;21.22;99706.58;107472;1262;68025;-84
2024/04/02 14:21:57;;;;;;;16.30;2.90;;;;;;;26.23;21.30;99710.55;107386;1262;70009;-84
2024/04/02 14:24:23;;;;;;;14.90;2.70;;;;;;;26.22;21.33;99720.56;107432;1266;72125;-84
2024/04/02 14:26:48;;;;;;;12.40;2.50;;;;;;;26.22;21.35;99717.85;107591;1262;69924;-84
2024/04/02 14:29:14;;;;;;;11.90;2.50;;;;;;;26.21;21.43;99726.89;107733;1262;69943;-85
2024/04/02 14:31:39;;;;;;;11.40;3.00;;;;;;;26.21;21.27;99717.06;107569;1264;72304;-84
2024/04/02 14:34:05;;;;;;;15.10;2.80;;;;;;;26.21;21.51;99720.16;107438;1263;69879;-84
2024/04/02 14:36:31;;;;;;;13.40;2.90;;;;;;;26.20;21.49;99713.73;107361;1264;69940;-84
2024/04/02 14:38:58;;;;;;;16.30;2.60;;;;;;;26.20;21.32;99716.21;106845;1263;69996;-84
2024/04/02 14:41:24;;;;;;;10.80;2.70;;;;;;;26.19;21.50;99716.33;106836;1264;69941;-83
2024/04/02 14:43:49;;;;;;;10.50;2.90;;;;;;;26.18;21.62;99716.36;106797;1264;69821;-83
2024/04/02 14:46:18;;;;;;;9.30;2.70;;;;;;;26.18;21.67;99721.44;106823;1264;69955;-84
2024/04/02 14:48:43;;;;;;;8.30;2.90;;;;;;;26.17;21.49;99721.48;106941;1264;71027;-84
2024/04/02 14:51:09;;;;;;;8.60;2.80;;;;;;;26.16;21.39;99714.47;106918;1264;69952;-85
2024/04/02 14:53:34;;;;;;;9.20;3.20;;;;;;;26.16;21.78;99715.54;107167;1266;69973;-86
2024/04/02 14:56:04;;;;;;;10.70;2.60;;;;;;;26.15;21.41;99716.45;107087;1264;69881;-86
2024/04/02 14:58:30;;;;;;;8.40;2.70;;;;;;;26.13;21.62;99716.59;107034;1263;70086;-84
2024/04/02 15:00:56;;;;;;;10.80;3.50;;;;;;;26.12;21.61;99717.60;107299;1264;69891;-84
2024/04/02 15:03:22;;;;;;;12.70;3.20;;;;;;;26.11;21.38;99727.42;107540;1264;70012;-85
2024/04/02 15:05:48;;;;;;;26.40;4.50;;;;;;;26.08;21.47;99725.14;107366;1264;70011;-85
2024/04/02 15:08:13;;;;;;;25.80;3.70;;;;;;;26.05;21.35;99730.85;107135;1264;69877;-85